Página principal
METAR-TAF:

METAR-TAF

Aeroportos :

Amã, Jordânia

latitude: 31-59N, longitude: 035-59E, altura: 767 m

Observação actual do tempo

O boletim foi feito há 47 minutos, às 23:00 UTC
Vento 6 kt de oeste
Temperatura 23°C
Humidade 50%
Pressão 1014 hPa
Visibilidade: 5000 m
bruma

METAR: OJAM 182300Z 26006KT 5000 HZ NSC 23/12 Q1014 NOSIG

Hora: 02:47 (23:47 UTC)

Previsão

O boletim foi feito há 57 minutos, às 22:50 UTC
Previsão válida de 19 às 00 UTC a 20 às 06 UTC
Vento 12 kt de oes-noroeste
Visibilidade: 5000 m
bruma
Temporariamente
de 19 às 02 UTC a 19 às 06 UTC
Visibilidade: 3500 m

TAF: OJAM 182250Z 1900/2006 29012KT 5000 HZ NSC TEMPO 1902/1906 3500

Observações e previsões do tempo de mais de 4000 aeroportos (mensagens METAR e TAF).

As estações disponíveis são os pontos amarelos e vermelhos sobre o mapa.

Mova o rato sobre o mapa para ver o nome da estação.

Depois clique no ponto para visualizar as observações e previsões meteorológicas.

Para alterar o mapa : clique nos botões verdes com uma cruz preta para aumentar o zoom; no botão verde com uma pitada de zoom; ou nas setas verdes para mapas adjacentes.


METAR-TAF: